Sarah Desgagnes — XJAB — position and weather

sailwx.info

Track history (hours):
 
Tides and Currents Weather Stations Pressure Air Temp Water Temp Dewpoint Dewpoint Depression Visibility Wind Speed Wind Dir Waves Ship Positions

Sarah Desgagnes

Last reported at 2017-Apr-27 14:00 UTC. Time now 2017-Apr-27 14:53 UTC.
Position N 46°48' W 071°12'.

Length 147 m; draft 7.8 m.

Type: Ship. MMSI: 316012308.

Wind from 060 at 11 knots

Barometer 1014.6 mb
Air temperature 6.5 ° C
Dewpoint 5.4 ° C

Date/timePositionNaut miles runAvg speedWind from/ knotsBaromVisibWave heightAir tempDewpointWater temp
2017-Apr-27 14:00N 46°48' W 071°12'0 0.0 060 / 111014.6 6.5 5.4
2017-Apr-27 13:00N 46°48' W 071°12'0 0.0 050 / 101014.3 6.8 5.5
2017-Apr-27 12:00N 46°48' W 071°12'0 0.0 050 / 81014.1 7.0 5.7
2017-Apr-27 11:00N 46°48' W 071°12'0 0.0 050 / 101013.8 6.6 5.6
2017-Apr-27 10:00N 46°48' W 071°12'0 0.0 060 / 81013.4 6.5 5.5
2017-Apr-27 09:00N 46°48' W 071°12'0 0.0 050 / 91013.0 6.9 5.9
2017-Apr-27 08:00N 46°48' W 071°12'0 0.0 060 / 101012.8 6.5 5.8
2017-Apr-27 07:00N 46°48' W 071°12'0 0.0 050 / 51013.5 7.4 6.3
2017-Apr-27 06:00N 46°48' W 071°12'0 0.0 070 / 51013.6 7.5 6.5
2017-Apr-27 05:00N 46°48' W 071°12'0 0.0 050 / 41013.6 8.5 7.1
2017-Apr-27 04:00N 46°48' W 071°12'0 0.0 050 / 81012.9 8.6 7.5
2017-Apr-27 03:00N 46°48' W 071°12'0 0.0 060 / 81013.0 8.6 7.5
2017-Apr-27 02:00N 46°48' W 071°12'0 0.0 050 / 71012.7 8.9 7.7
2017-Apr-27 01:00N 46°48' W 071°12'0 0.0 050 / 41012.1 10.6 9.0
2017-Apr-27 00:00N 46°48' W 071°12'0 0.0 060 / 41011.9 9.7 8.7
2017-Apr-26 23:00N 46°48' W 071°12'0 0.0 050 / 51011.8 11.4 9.8
2017-Apr-26 22:00N 46°48' W 071°12'0 0.0 050 / 41012.0 12.410.2
2017-Apr-26 21:00N 46°48' W 071°12'0 0.0 060 / 91013.1 11.1 9.2
2017-Apr-26 20:00N 46°48' W 071°12'0 0.0 070 / 71013.8 10.0 8.9
2017-Apr-26 19:00N 46°48' W 071°12'0 0.0 060 / 31014.7 10.3 9.4
2017-Apr-26 18:00N 46°48' W 071°12'0 0.0 060 / 31015.1 11.1 9.9
2017-Apr-26 17:00N 46°48' W 071°12'0 0.0 050 / 31015.5 11.2 9.1
2017-Apr-26 16:00N 46°48' W 071°12'0 0.0 050 / 21015.4 11.0 8.7
2017-Apr-26 15:00N 46°48' W 071°12'0 0.0 040 / 31015.8 10.5 8.3
2017-Apr-26 14:00N 46°48' W 071°12'0 0.0 050 / 31016.1 9.7 7.6
2017-Apr-26 13:00N 46°48' W 071°12'0 0.0 050 / 31016.5 8.7 6.9
2017-Apr-26 12:00N 46°48' W 071°12'0 0.0 060 / 31016.9 7.0 5.9
2017-Apr-26 11:00N 46°48' W 071°12'0 0.0 050 / 51017.0 7.0 5.7
2017-Apr-26 10:00N 46°48' W 071°12'0 0.0 050 / 41017.3 7.0 5.5
2017-Apr-26 09:00N 46°48' W 071°12'0 0.0 050 / 41017.8 6.9 5.3
2017-Apr-26 08:00N 46°48' W 071°12'0 0.0 060 / 51018.9 5.7 4.7
2017-Apr-26 07:00N 46°48' W 071°12'0 0.0 050 / 41020.3 6.5 4.9
2017-Apr-26 06:00N 46°48' W 071°12'0 0.0 060 / 31021.3 6.2 4.7
2017-Apr-26 05:00N 46°48' W 071°12'0 0.0 040 / 41022.0 6.4 4.9
2017-Apr-26 04:00N 46°48' W 071°12'0 0.0 040 / 51022.6 6.7 4.7
2017-Apr-26 03:00N 46°48' W 071°12'0 0.0 060 / 31022.8 6.2 4.3
2017-Apr-26 02:00N 46°48' W 071°12'0 0.0 030 / 61023.0 5.7 3.5
2017-Apr-26 01:00N 46°48' W 071°12'0 0.0 030 / 61023.4 5.2 1.6
2017-Apr-26 00:00N 46°48' W 071°12'0 0.0 030 / 101023.2 5.5-0.0
2017-Apr-25 23:00N 46°48' W 071°12'0 0.0 040 / 51023.5 7.0-2.6
2017-Apr-25 22:00N 46°48' W 071°12'0 0.0 050 / 61023.7 7.3-3.3
2017-Apr-25 21:00N 46°48' W 071°12'0 0.0 060 / 71023.7 8.1-3.0
2017-Apr-25 20:00N 46°48' W 071°12'0 0.0 060 / 91024.7 8.6-3.1
2017-Apr-25 19:00N 46°48' W 071°12'0 0.0 060 / 111025.9 8.3-2.7
2017-Apr-25 18:00N 46°48' W 071°12'0 0.0 070 / 161026.9 6.9-3.2
2017-Apr-25 17:00N 46°48' W 071°12'0 0.0 080 / 181027.5 6.2-5.1
2017-Apr-25 16:00N 46°48' W 071°12'0 0.0 070 / 181028.4 5.5-5.7
2017-Apr-25 15:00N 46°48' W 071°12'0 0.0 070 / 161029.2 5.0-6.8
2017-Apr-25 14:00N 46°48' W 071°12'0 0.0 060 / 111029.5 3.9-7.0
2017-Apr-25 13:00N 46°48' W 071°12'0 0.0 060 / 131029.9 3.2-6.2
2017-Apr-25 12:00N 46°48' W 071°12'0 0.0 070 / 161029.8 2.5-7.1
2017-Apr-25 11:00N 46°48' W 071°12'0 0.0 070 / 131029.4 2.5-6.8
2017-Apr-25 10:00N 46°48' W 071°12'0 0.0 050 / 81028.8 2.7-6.7
2017-Apr-25 09:00N 46°48' W 071°12'0 0.0 050 / 81028.7 2.9-5.5
2017-Apr-25 07:00N 46°48' W 071°12'0 0.0 050 / 81028.4 3.4-4.1
2017-Apr-25 06:00N 46°48' W 071°12'0 0.0 050 / 71028.7 4.0-3.5
2017-Apr-25 05:00N 46°48' W 071°12'0 0.0 060 / 51028.2 4.5-2.8
2017-Apr-25 04:00N 46°48' W 071°12'0 0.0 040 / 51027.8 5.4-1.0
2017-Apr-25 03:00N 46°48' W 071°12'0 0.0 020 / 31027.5 5.0-10.5
2017-Apr-25 02:00N 46°48' W 071°12'0 0.0 310 / 11026.9 5.1-11.5
2017-Apr-25 01:00N 46°48' W 071°12'0 0.0 240 / 41026.3 5.7-12.5
2017-Apr-25 00:00N 46°48' W 071°12'0 0.0 250 / 61025.4 6.6-12.2
2017-Apr-24 23:00N 46°48' W 071°12'0 0.0 220 / 81024.5 7.0-9.7
2017-Apr-24 22:00N 46°48' W 071°12'0 0.0 210 / 151024.4 6.6-8.1
2017-Apr-24 21:00N 46°48' W 071°12'0 0.0 220 / 121024.4 6.8-8.5
2017-Apr-24 20:00N 46°48' W 071°12'0 0.0 220 / 141024.7 6.0-7.9
2017-Apr-24 19:00N 46°48' W 071°12'0 0.0 210 / 141025.0 4.9-7.0
2017-Apr-24 18:00N 46°48' W 071°12'0 0.0 210 / 101025.4 4.6-9.2
2017-Apr-24 17:00N 46°48' W 071°12'0 0.0 220 / 71025.7 3.7-9.9
2017-Apr-24 16:00N 46°48' W 071°12'0 0.0 210 / 151026.2 1.9-8.1
2017-Apr-24 15:00N 46°48' W 071°12'0 0.0 240 / 41026.6 2.0-11.3
2017-Apr-24 14:00N 46°48' W 071°12'0 0.0 250 / 81026.4 0.9-10.7
2017-Apr-24 13:00N 46°48' W 071°12'0 0.0 260 / 51025.4 0.6-10.3
2017-Apr-24 12:00N 46°48' W 071°12'0 0.0 300 / 21024.8 0.3-8.7
2017-Apr-24 11:00N 46°48' W 071°12'0 0.0 330 / 21023.2 0.6-7.6
2017-Apr-24 10:00N 46°48' W 071°12'0 0.0 020 / 31022.0 0.6-6.3
2017-Apr-24 09:00N 46°48' W 071°12'0 0.0 270 / 11021.0 0.3-4.4
2017-Apr-24 07:00N 46°48' W 071°12'0 0.0 260 / 41019.6 1.8-3.3
2017-Apr-24 06:00N 46°48' W 071°12'0 0.0 240 / 51019.0 2.5-0.9
2017-Apr-24 05:00N 46°48' W 071°12'0 0.0 240 / 71018.4 3.4 0.1
2017-Apr-24 03:00N 46°48' W 071°12'0 0.0 250 / 91015.7 6.8 0.6
2017-Apr-24 02:00N 46°48' W 071°12'0 0.0 230 / 71014.8 7.3 4.7
2017-Apr-24 01:00N 46°48' W 071°12'0 0.0 230 / 41014.1 8.9 5.1
2017-Apr-24 00:00N 46°48' W 071°12'0 0.0 240 / 71012.1 10.7 7.2
2017-Apr-23 23:00N 46°48' W 071°12'0 0.0 250 / 31010.3 13.1 4.8
2017-Apr-23 22:00N 46°48' W 071°12'0 0.0 240 / 91010.4 14.3 4.3
2017-Apr-23 21:00N 46°48' W 071°12'0 0.0 230 / 81010.7 13.8 4.0
2017-Apr-23 20:00N 46°48' W 071°12'0 0.0 230 / 91011.9 13.4 3.6
2017-Apr-23 19:00N 46°48' W 071°12'0 0.0 250 / 101013.4 12.6 3.3
2017-Apr-23 18:00N 46°48' W 071°12'0 0.0 250 / 91014.5 11.3 3.3
2017-Apr-23 17:00N 46°48' W 071°12'0 0.0 220 / 101015.4 9.0 3.0
2017-Apr-23 16:00N 46°48' W 071°12'0 0.0 220 / 111016.0 8.0 0.9
2017-Apr-23 15:00N 46°48' W 071°12'0 0.0 210 / 151016.7 6.1 2.3
2017-Apr-23 14:00N 46°48' W 071°12'0 0.0 200 / 71017.4 4.2 3.0
2017-Apr-23 13:00N 46°48' W 071°12'0 0.0 200 / 71017.4 2.2 2.0
2017-Apr-23 11:00N 46°48' W 071°12'4 4.1 210 / 51016.9 2.7 2.6 7.2
2017-Apr-23 10:00N 46°48' W 071°06'1010.2 310 / 51016.1 3.4 3.1 7.1
2017-Apr-23 09:00N 46°54' W 070°54'1514.5 230 / 31015.4 3.7 2.8 7.1
2017-Apr-23 08:00N 47°06' W 070°42'1514.5 350 / 21015.5 3.1 3.0 6.5
2017-Apr-23 07:00N 47°18' W 070°30'1717.1 110 / 81014.9 2.7 2.2 5.5
2017-Apr-23 06:00N 47°30' W 070°12'1717.1 050 / 81015.1 2.8 2.2 5.1
2017-Apr-23 05:00N 47°42' W 069°54'1312.7 040 / 71015.3 2.4 1.9 5.0
2017-Apr-23 04:00N 47°54' W 069°48'1414.4 010 / 81015.5 2.0 1.8 4.6
2017-Apr-23 03:00N 48°06' W 069°36'1414.4 010 / 121015.8 1.7 1.2 3.7
2017-Apr-23 02:00N 48°18' W 069°24'1010.0 010 / 121016.0 1.4 1.3 4.0
2017-Apr-23 01:00N 48°24' W 069°12'7 7.2 360 / 141016.2 1.9 1.8 4.1
2017-Apr-23 00:00N 48°30' W 069°06'1010.0 070 / 101015.9 1.9 1.7 3.7
2017-Apr-22 23:00N 48°36' W 068°54'8 7.9 080 / 151015.9 1.5 1.3 4.1
2017-Apr-22 22:00N 48°36' W 068°42'10 9.9 080 / 151015.8 1.4 1.3 3.7
2017-Apr-22 21:00N 48°42' W 068°30'7 7.2 080 / 201015.8 1.0 0.9 3.5
2017-Apr-22 20:00N 48°48' W 068°24'10 9.9 080 / 211016.2 0.7 0.5 3.3
2017-Apr-22 19:00N 48°54' W 068°12'8 7.9 070 / 201016.7 0.3 0.1 3.1
2017-Apr-22 18:00N 48°54' W 068°00'7 7.2 070 / 221017.1 -0.1-0.3 3.1
2017-Apr-22 17:00N 49°00' W 067°54'10 9.9 070 / 181017.6 -0.3-0.4 3.1
2017-Apr-22 16:00N 49°06' W 067°42'10 9.9 070 / 121018.6 -0.2-0.6 3.3
2017-Apr-22 15:00N 49°12' W 067°30'1211.8 040 / 101019.3 0.8-0.6 3.2
2017-Apr-22 14:00N 49°12' W 067°12'1313.2 020 / 61019.5 2.0-1.1 3.0
2017-Apr-22 13:00N 49°18' W 066°54'4 3.9 100 / 81020.0 2.0-1.9 3.2
2017-Apr-22 12:00N 49°18' W 066°48'1313.2 090 / 201019.9 1.3-2.6 2.7
2017-Apr-22 11:00N 49°24' W 066°30'1211.7 090 / 201020.3 1.3-2.5 2.0
2017-Apr-22 10:00N 49°24' W 066°12'1211.7 090 / 261020.8 1.1-1.5 2.3
2017-Apr-22 09:00N 49°24' W 065°54'10 9.8 090 / 211021.5 1.2-1.0 2.4
2017-Apr-22 08:00N 49°30' W 065°42'10 9.8 090 / 131022.4 4.0-0.0 2.5
2017-Apr-22 07:00N 49°24' W 065°30'1211.7 090 / 111022.7 3.5-0.1 2.6
2017-Apr-22 06:00N 49°24' W 065°12'1211.7 100 / 131023.2 2.2-0.2 2.7
2017-Apr-22 05:00N 49°24' W 064°54'7 7.2 100 / 131024.1 2.3-0.3 3.1
2017-Apr-22 04:00N 49°18' W 064°48'10 9.9 110 / 101025.0 2.1-0.1 2.8
2017-Apr-22 03:00N 49°12' W 064°36'10 9.9 130 / 71024.8 1.7-0.6 3.1
2017-Apr-22 02:00N 49°06' W 064°24'8 7.9 130 / 81024.9 1.1-0.6 3.5
2017-Apr-22 01:00N 49°06' W 064°12'1312.6 120 / 51025.5 1.2-0.6 3.3
2017-Apr-22 00:00N 48°54' W 064°06'6 6.0 070 / 41025.4 1.0-0.7 3.3
2017-Apr-21 23:00N 48°48' W 064°06'7 7.2 030 / 31025.2 0.9-1.2 3.0
2017-Apr-21 22:00N 48°42' W 064°12'10 9.9 100 / 51025.4 1.2-1.4 3.6
2017-Apr-21 21:00N 48°48' W 064°24'0 0.0 100 / 41026.0 1.7-1.5 3.6
2017-Apr-21 20:00N 48°48' W 064°24'0 0.0 110 / 81026.0 2.0-2.1
2017-Apr-21 19:00N 48°48' W 064°24'0 0.0 120 / 91026.3 1.7-1.8
2017-Apr-21 18:00N 48°48' W 064°24'0 0.0 120 / 81026.7 2.1-1.5
2017-Apr-21 17:00N 48°48' W 064°24'0 0.0 140 / 41027.0 1.8-1.5
2017-Apr-21 16:00N 48°48' W 064°24'0 0.0 070 / 61027.2 1.1-1.9
2017-Apr-21 15:00N 48°48' W 064°24'0 0.0 050 / 81027.5 0.9-2.1
2017-Apr-21 14:00N 48°48' W 064°24'4 4.0 060 / 51027.6 1.6-2.3 3.7
2017-Apr-21 13:00N 48°48' W 064°18'1716.9 010 / 111027.2 0.3-1.0 3.2
2017-Apr-21 12:00N 48°42' W 063°54'1313.3 360 / 151027.2 0.5-0.0 2.5
2017-Apr-21 11:00N 48°36' W 063°36'1211.9 020 / 101027.0 0.5 0.2 2.7
2017-Apr-21 10:00N 48°36' W 063°18'1717.0 020 / 101026.8 0.3-0.1 2.6
2017-Apr-21 09:00N 48°30' W 062°54'1211.9 020 / 61026.4 -0.1-0.7 1.6
2017-Apr-21 08:00N 48°30' W 062°36'1313.4 040 / 51026.2 0.1-1.3 1.9
2017-Apr-21 07:00N 48°24' W 062°18'1717.0 040 / 31025.6 -0.1-1.0 1.7
2017-Apr-21 06:00N 48°18' W 061°54'1212.0 020 / 41025.5 -0.3-0.8 1.3
2017-Apr-21 05:00N 48°18' W 061°36'1313.4 050 / 61025.2 -0.4-1.5 1.6
2017-Apr-21 04:00N 48°12' W 061°18'1717.1 030 / 61025.6 -0.5-2.3 2.0
2017-Apr-21 03:00N 48°06' W 060°54'1010.0 040 / 81025.9 -0.7-1.8 1.2
2017-Apr-21 02:00N 48°00' W 060°42'1414.4 040 / 81026.2 -0.5-2.2 1.3
2017-Apr-21 01:00N 47°48' W 060°30'1414.5 030 / 71026.3 -0.4-2.3 1.4
2017-Apr-21 00:00N 47°36' W 060°18'1414.5 040 / 71026.2 -0.1-3.0 2.0
2017-Apr-20 23:00N 47°24' W 060°06'1312.7 020 / 61025.9 -0.0-3.6 2.0
2017-Apr-20 22:00N 47°12' W 060°00'1818.0 140 / 21025.9 -0.0-4.1 2.0
2017-Apr-20 21:00N 46°54' W 060°00'7 7.3 090 / 61026.1 -0.0-4.5 2.4
2017-Apr-20 20:00N 46°48' W 060°06'1818.0 080 / 81026.0 -0.0-3.8 2.4
2017-Apr-20 19:00N 46°30' W 060°06'1212.0 070 / 71025.7 -0.1-3.3 1.9
2017-Apr-20 18:00N 46°18' W 060°06'1312.7 060 / 101025.8 -0.2-3.3 2.2
2017-Apr-20 17:00N 46°06' W 060°12'0 0.0 340 / 111026.3 1.3-2.7
2017-Apr-20 16:00N 46°06' W 060°12'0 0.0 330 / 121026.8 0.4-2.3
2017-Apr-20 15:00N 46°06' W 060°12'0 0.0 350 / 91028.0 0.6-3.0
2017-Apr-20 14:00N 46°06' W 060°12'0 0.0 340 / 81028.1 0.1-3.4
2017-Apr-20 13:00N 46°06' W 060°12'0 0.0 310 / 31028.7 -0.8-4.0
2017-Apr-20 12:00N 46°06' W 060°12'0 0.0 190 / 21029.2 -0.7-4.2
2017-Apr-20 11:00N 46°06' W 060°12'0 0.0 180 / 11029.6 -3.1-5.1
2017-Apr-20 10:00N 46°06' W 060°12'0 0.0 190 / 11029.7 -4.6-5.6
2017-Apr-20 09:00N 46°06' W 060°12'0 0.0 180 / 31029.6 -5.7-6.5
2017-Apr-20 08:00N 46°06' W 060°12'0 0.0 250 / 21029.6 -5.2-6.5
2017-Apr-20 07:00N 46°06' W 060°12'0 0.0 300 / 21029.8 -5.4-6.5
2017-Apr-20 06:00N 46°06' W 060°12'0 0.0 080 / 21029.8 -4.5-6.0
2017-Apr-20 05:00N 46°06' W 060°12'0 0.0 1030.9 -4.3-6.0
2017-Apr-20 04:00N 46°06' W 060°12'0 0.0 070 / 11031.5 -3.5-6.0 3.1
2017-Apr-20 03:00N 46°06' W 060°12'0 0.0 260 / 11032.6 -3.6-5.7 3.4
2017-Apr-20 02:00N 46°06' W 060°12'6 6.0 120 / 11032.9 -2.7-5.9 4.2
2017-Apr-20 01:00N 46°12' W 060°12'7 7.3 070 / 41033.3 -3.1-6.0 4.5
2017-Apr-20 00:00N 46°18' W 060°06'1312.7 090 / 61033.4 -2.9-6.1 2.0
2017-Apr-19 23:00N 46°30' W 060°12'1212.0 100 / 51033.0 -3.0-6.6 1.7
2017-Apr-19 22:00N 46°42' W 060°12'1212.0 090 / 61033.4 -2.6-8.0 1.4
2017-Apr-19 21:00N 46°54' W 060°12'1818.5 100 / 41034.2 -2.4-10.1 2.0
2017-Apr-19 20:00N 47°12' W 060°18'1414.5 130 / 51034.4 -2.2-10.7 2.3
2017-Apr-19 19:00N 47°24' W 060°30'7 7.2 080 / 51034.4 -2.3-9.6 1.7
2017-Apr-19 18:00N 47°30' W 060°36'1414.5 090 / 61034.9 -2.6-8.5 1.7
2017-Apr-19 17:00N 47°42' W 060°48'1312.7 110 / 71035.5 -2.4-7.5 1.3
2017-Apr-19 16:00N 47°54' W 060°54'1717.0 110 / 51036.4 -2.4-7.7 1.1
2017-Apr-19 15:00N 48°06' W 061°12'1313.4 090 / 71037.2 -2.4-7.8 1.2
2017-Apr-19 14:00N 48°12' W 061°30'1313.4 100 / 51038.3 -2.1-8.4 1.2
2017-Apr-19 13:00N 48°18' W 061°48'1716.9 110 / 71038.5 -1.9-9.4 1.4
2017-Apr-19 12:00N 48°30' W 062°06'1313.3 150 / 11039.0 -1.6-8.0 1.4
2017-Apr-19 11:00N 48°36' W 062°24'10 9.9 250 / 31039.0 -1.4-7.8 1.8
2017-Apr-19 10:00N 48°42' W 062°36'1313.3 230 / 61038.1 -1.6-7.3 1.3
2017-Apr-19 09:00N 48°48' W 062°54'1313.3 220 / 91037.4 -1.8-6.8 1.3
2017-Apr-19 08:00N 48°54' W 063°12'1313.3 220 / 111037.2 -1.4-6.8 1.7
2017-Apr-19 07:00N 49°00' W 063°30'1313.2 210 / 131036.9 -1.6-7.4 1.7
2017-Apr-19 06:00N 49°06' W 063°48'1313.2 190 / 141036.3 -1.2-8.6 2.5
2017-Apr-19 05:00N 49°12' W 064°06'1313.2 200 / 111036.5 -1.0-7.0 2.0
2017-Apr-19 04:00N 49°18' W 064°24'1313.2 190 / 131036.7 -1.0-6.2 1.9
2017-Apr-19 03:00N 49°24' W 064°42'1313.2 180 / 121036.6 -1.0-8.8 1.9
2017-Apr-19 02:00N 49°30' W 065°00'1313.1 160 / 101036.4 -1.9-11.5 1.9
2017-Apr-19 01:00N 49°36' W 065°18'1313.1 170 / 81036.2 -2.2-11.2 2.3
2017-Apr-19 00:00N 49°42' W 065°36'1313.1 170 / 91035.9 -2.6-12.7 2.1
2017-Apr-18 23:00N 49°48' W 065°54'1313.1 180 / 101035.6 -2.9-12.1 2.0
2017-Apr-18 22:00N 49°54' W 066°12'1414.3 170 / 111035.3 -2.5-13.7 1.8
2017-Apr-18 21:00N 50°06' W 066°24'6 6.0 180 / 81035.5 -2.3-12.7 1.7
2017-Apr-18 20:00N 50°12' W 066°24'0 0.0 200 / 81035.9 -2.8-12.3
2017-Apr-18 19:00N 50°12' W 066°24'0 0.0 190 / 111036.1 -3.4-12.3
2017-Apr-18 18:00N 50°12' W 066°24'0 0.0 200 / 111036.2 -3.9-13.3
2017-Apr-18 17:00N 50°12' W 066°24'0 0.0 200 / 101036.0 -4.4-13.7
2017-Apr-18 16:00N 50°12' W 066°24'0 0.0 160 / 81036.0 -4.3-13.4
2017-Apr-18 15:00N 50°12' W 066°24'0 0.0 170 / 71036.0 -4.6-14.0
2017-Apr-18 14:00N 50°12' W 066°24'0 0.0 120 / 91035.8 -5.5-15.7
2017-Apr-18 13:00N 50°12' W 066°24'0 0.0 120 / 71035.1 -5.2-18.3
2017-Apr-18 12:00N 50°12' W 066°24'7 7.1 040 / 71034.5 -6.5-17.0 1.4
2017-Apr-18 11:00N 50°06' W 066°18'7 7.1 040 / 131033.1 -6.5-15.9 1.3
2017-Apr-18 10:00N 50°00' W 066°24'4 3.9 030 / 151031.9 -6.4-15.6 1.4
2017-Apr-18 09:00N 50°00' W 066°30'4 3.9 040 / 141030.7 -6.3-15.8 1.4
2017-Apr-18 08:00N 50°00' W 066°36'4 3.9 040 / 131029.9 -5.6-16.6 1.4
2017-Apr-18 07:00N 50°00' W 066°42'4 3.9 020 / 141028.9 -5.7-16.5 1.6
2017-Apr-18 06:00N 50°00' W 066°48'0 0.0 340 / 71028.7 -7.3-17.2 1.8
2017-Apr-18 05:00N 50°00' W 066°48'0 0.0 020 / 21028.0 -7.4-16.3
2017-Apr-18 04:00N 50°00' W 066°48'0 0.0 020 / 11027.0 -6.6-15.8
2017-Apr-18 03:00N 50°00' W 066°48'0 0.0 350 / 21026.2 -5.6-15.0
2017-Apr-18 02:00N 50°00' W 066°48'0 0.0 070 / 31025.1 -3.3-16.8
2017-Apr-18 01:00N 50°00' W 066°48'0 0.0 070 / 41024.0 -1.9-14.9
2017-Apr-18 00:00N 50°00' W 066°48'0 0.0 220 / 11022.8 -1.0-5.1
2017-Apr-17 23:00N 50°00' W 066°48'0 0.0 210 / 11021.3 0.3-5.4
2017-Apr-17 22:00N 50°00' W 066°48'0 0.0 060 / 11020.5 0.8-5.9
2017-Apr-17 21:00N 50°00' W 066°48'0 0.0 070 / 21019.5 0.8-11.8
2017-Apr-17 20:00N 50°00' W 066°48'0 0.0 040 / 11018.7 0.8-11.3
2017-Apr-17 19:00N 50°00' W 066°48'0 0.0 080 / 51018.4 0.6-12.8
2017-Apr-17 18:00N 50°00' W 066°48'0 0.0 040 / 21018.4 0.6-15.2
2017-Apr-17 17:00N 50°00' W 066°48'0 0.0 070 / 31017.8 -0.2-14.2
2017-Apr-17 16:00N 50°00' W 066°48'6 6.0 030 / 81016.8 -1.3-14.2 2.2
2017-Apr-17 15:00N 49°54' W 066°48'7 7.1 030 / 111015.9 -2.2-13.2 2.0
2017-Apr-17 14:00N 49°48' W 066°54'   030 / 161015.2 -3.3-10.6 1.7
Track history (hours):
 
Tides and Currents Weather Stations Pressure Air Temp Water Temp Dewpoint Dewpoint Depression Visibility Wind Speed Wind Dir Waves Ship Positions

Sarah Desgagnes

Last reported at 2017-Apr-27 14:00 UTC. Time now 2017-Apr-27 14:53 UTC.
Position N 46°48' W 071°12'.

Length 147 m; draft 7.8 m.

Type: Ship. MMSI: 316012308.

Wind from 060 at 11 knots

Barometer 1014.6 mb
Air temperature 6.5 ° C
Dewpoint 5.4 ° C

Date/timePositionNaut miles runAvg speedWind from/ knotsBaromVisibWave heightAir tempDewpointWater temp
2017-Apr-27 14:00N 46°48' W 071°12'0 0.0 060 / 111014.6 6.5 5.4
2017-Apr-27 13:00N 46°48' W 071°12'0 0.0 050 / 101014.3 6.8 5.5
2017-Apr-27 12:00N 46°48' W 071°12'0 0.0 050 / 81014.1 7.0 5.7
2017-Apr-27 11:00N 46°48' W 071°12'0 0.0 050 / 101013.8 6.6 5.6
2017-Apr-27 10:00N 46°48' W 071°12'0 0.0 060 / 81013.4 6.5 5.5
2017-Apr-27 09:00N 46°48' W 071°12'0 0.0 050 / 91013.0 6.9 5.9
2017-Apr-27 08:00N 46°48' W 071°12'0 0.0 060 / 101012.8 6.5 5.8
2017-Apr-27 07:00N 46°48' W 071°12'0 0.0 050 / 51013.5 7.4 6.3
2017-Apr-27 06:00N 46°48' W 071°12'0 0.0 070 / 51013.6 7.5 6.5
2017-Apr-27 05:00N 46°48' W 071°12'0 0.0 050 / 41013.6 8.5 7.1
2017-Apr-27 04:00N 46°48' W 071°12'0 0.0 050 / 81012.9 8.6 7.5
2017-Apr-27 03:00N 46°48' W 071°12'0 0.0 060 / 81013.0 8.6 7.5
2017-Apr-27 02:00N 46°48' W 071°12'0 0.0 050 / 71012.7 8.9 7.7
2017-Apr-27 01:00N 46°48' W 071°12'0 0.0 050 / 41012.1 10.6 9.0
2017-Apr-27 00:00N 46°48' W 071°12'0 0.0 060 / 41011.9 9.7 8.7
2017-Apr-26 23:00N 46°48' W 071°12'0 0.0 050 / 51011.8 11.4 9.8
2017-Apr-26 22:00N 46°48' W 071°12'0 0.0 050 / 41012.0 12.410.2
2017-Apr-26 21:00N 46°48' W 071°12'0 0.0 060 / 91013.1 11.1 9.2
2017-Apr-26 20:00N 46°48' W 071°12'0 0.0 070 / 71013.8 10.0 8.9
2017-Apr-26 19:00N 46°48' W 071°12'0 0.0 060 / 31014.7 10.3 9.4
2017-Apr-26 18:00N 46°48' W 071°12'0 0.0 060 / 31015.1 11.1 9.9
2017-Apr-26 17:00N 46°48' W 071°12'0 0.0 050 / 31015.5 11.2 9.1
2017-Apr-26 16:00N 46°48' W 071°12'0 0.0 050 / 21015.4 11.0 8.7
2017-Apr-26 15:00N 46°48' W 071°12'0 0.0 040 / 31015.8 10.5 8.3
2017-Apr-26 14:00N 46°48' W 071°12'0 0.0 050 / 31016.1 9.7 7.6
2017-Apr-26 13:00N 46°48' W 071°12'0 0.0 050 / 31016.5 8.7 6.9
2017-Apr-26 12:00N 46°48' W 071°12'0 0.0 060 / 31016.9 7.0 5.9
2017-Apr-26 11:00N 46°48' W 071°12'0 0.0 050 / 51017.0 7.0 5.7
2017-Apr-26 10:00N 46°48' W 071°12'0 0.0 050 / 41017.3 7.0 5.5
2017-Apr-26 09:00N 46°48' W 071°12'0 0.0 050 / 41017.8 6.9 5.3
2017-Apr-26 08:00N 46°48' W 071°12'0 0.0 060 / 51018.9 5.7 4.7
2017-Apr-26 07:00N 46°48' W 071°12'0 0.0 050 / 41020.3 6.5 4.9
2017-Apr-26 06:00N 46°48' W 071°12'0 0.0 060 / 31021.3 6.2 4.7
2017-Apr-26 05:00N 46°48' W 071°12'0 0.0 040 / 41022.0 6.4 4.9
2017-Apr-26 04:00N 46°48' W 071°12'0 0.0 040 / 51022.6 6.7 4.7
2017-Apr-26 03:00N 46°48' W 071°12'0 0.0 060 / 31022.8 6.2 4.3
2017-Apr-26 02:00N 46°48' W 071°12'0 0.0 030 / 61023.0 5.7 3.5
2017-Apr-26 01:00N 46°48' W 071°12'0 0.0 030 / 61023.4 5.2 1.6
2017-Apr-26 00:00N 46°48' W 071°12'0 0.0 030 / 101023.2 5.5-0.0
2017-Apr-25 23:00N 46°48' W 071°12'0 0.0 040 / 51023.5 7.0-2.6
2017-Apr-25 22:00N 46°48' W 071°12'0 0.0 050 / 61023.7 7.3-3.3
2017-Apr-25 21:00N 46°48' W 071°12'0 0.0 060 / 71023.7 8.1-3.0
2017-Apr-25 20:00N 46°48' W 071°12'0 0.0 060 / 91024.7 8.6-3.1
2017-Apr-25 19:00N 46°48' W 071°12'0 0.0 060 / 111025.9 8.3-2.7
2017-Apr-25 18:00N 46°48' W 071°12'0 0.0 070 / 161026.9 6.9-3.2
2017-Apr-25 17:00N 46°48' W 071°12'0 0.0 080 / 181027.5 6.2-5.1
2017-Apr-25 16:00N 46°48' W 071°12'0 0.0 070 / 181028.4 5.5-5.7
2017-Apr-25 15:00N 46°48' W 071°12'0 0.0 070 / 161029.2 5.0-6.8
2017-Apr-25 14:00N 46°48' W 071°12'0 0.0 060 / 111029.5 3.9-7.0
2017-Apr-25 13:00N 46°48' W 071°12'0 0.0 060 / 131029.9 3.2-6.2
2017-Apr-25 12:00N 46°48' W 071°12'0 0.0 070 / 161029.8 2.5-7.1
2017-Apr-25 11:00N 46°48' W 071°12'0 0.0 070 / 131029.4 2.5-6.8
2017-Apr-25 10:00N 46°48' W 071°12'0 0.0 050 / 81028.8 2.7-6.7
2017-Apr-25 09:00N 46°48' W 071°12'0 0.0 050 / 81028.7 2.9-5.5
2017-Apr-25 07:00N 46°48' W 071°12'0 0.0 050 / 81028.4 3.4-4.1
2017-Apr-25 06:00N 46°48' W 071°12'0 0.0 050 / 71028.7 4.0-3.5
2017-Apr-25 05:00N 46°48' W 071°12'0 0.0 060 / 51028.2 4.5-2.8
2017-Apr-25 04:00N 46°48' W 071°12'0 0.0 040 / 51027.8 5.4-1.0
2017-Apr-25 03:00N 46°48' W 071°12'0 0.0 020 / 31027.5 5.0-10.5
2017-Apr-25 02:00N 46°48' W 071°12'0 0.0 310 / 11026.9 5.1-11.5
2017-Apr-25 01:00N 46°48' W 071°12'0 0.0 240 / 41026.3 5.7-12.5
2017-Apr-25 00:00N 46°48' W 071°12'0 0.0 250 / 61025.4 6.6-12.2
2017-Apr-24 23:00N 46°48' W 071°12'0 0.0 220 / 81024.5 7.0-9.7
2017-Apr-24 22:00N 46°48' W 071°12'0 0.0 210 / 151024.4 6.6-8.1
2017-Apr-24 21:00N 46°48' W 071°12'0 0.0 220 / 121024.4 6.8-8.5
2017-Apr-24 20:00N 46°48' W 071°12'0 0.0 220 / 141024.7 6.0-7.9
2017-Apr-24 19:00N 46°48' W 071°12'0 0.0 210 / 141025.0 4.9-7.0
2017-Apr-24 18:00N 46°48' W 071°12'0 0.0 210 / 101025.4 4.6-9.2
2017-Apr-24 17:00N 46°48' W 071°12'0 0.0 220 / 71025.7 3.7-9.9
2017-Apr-24 16:00N 46°48' W 071°12'0 0.0 210 / 151026.2 1.9-8.1
2017-Apr-24 15:00N 46°48' W 071°12'0 0.0 240 / 41026.6 2.0-11.3
2017-Apr-24 14:00N 46°48' W 071°12'0 0.0 250 / 81026.4 0.9-10.7
2017-Apr-24 13:00N 46°48' W 071°12'0 0.0 260 / 51025.4 0.6-10.3
2017-Apr-24 12:00N 46°48' W 071°12'0 0.0 300 / 21024.8 0.3-8.7
2017-Apr-24 11:00N 46°48' W 071°12'0 0.0 330 / 21023.2 0.6-7.6
2017-Apr-24 10:00N 46°48' W 071°12'0 0.0 020 / 31022.0 0.6-6.3
2017-Apr-24 09:00N 46°48' W 071°12'0 0.0 270 / 11021.0 0.3-4.4
2017-Apr-24 07:00N 46°48' W 071°12'0 0.0 260 / 41019.6 1.8-3.3
2017-Apr-24 06:00N 46°48' W 071°12'0 0.0 240 / 51019.0 2.5-0.9
2017-Apr-24 05:00N 46°48' W 071°12'0 0.0 240 / 71018.4 3.4 0.1
2017-Apr-24 03:00N 46°48' W 071°12'0 0.0 250 / 91015.7 6.8 0.6
2017-Apr-24 02:00N 46°48' W 071°12'0 0.0 230 / 71014.8 7.3 4.7
2017-Apr-24 01:00N 46°48' W 071°12'0 0.0 230 / 41014.1 8.9 5.1
2017-Apr-24 00:00N 46°48' W 071°12'0 0.0 240 / 71012.1 10.7 7.2
2017-Apr-23 23:00N 46°48' W 071°12'0 0.0 250 / 31010.3 13.1 4.8
2017-Apr-23 22:00N 46°48' W 071°12'0 0.0 240 / 91010.4 14.3 4.3
2017-Apr-23 21:00N 46°48' W 071°12'0 0.0 230 / 81010.7 13.8 4.0
2017-Apr-23 20:00N 46°48' W 071°12'0 0.0 230 / 91011.9 13.4 3.6
2017-Apr-23 19:00N 46°48' W 071°12'0 0.0 250 / 101013.4 12.6 3.3
2017-Apr-23 18:00N 46°48' W 071°12'0 0.0 250 / 91014.5 11.3 3.3
2017-Apr-23 17:00N 46°48' W 071°12'0 0.0 220 / 101015.4 9.0 3.0
2017-Apr-23 16:00N 46°48' W 071°12'0 0.0 220 / 111016.0 8.0 0.9
2017-Apr-23 15:00N 46°48' W 071°12'0 0.0 210 / 151016.7 6.1 2.3
2017-Apr-23 14:00N 46°48' W 071°12'0 0.0 200 / 71017.4 4.2 3.0
2017-Apr-23 13:00N 46°48' W 071°12'0 0.0 200 / 71017.4 2.2 2.0
2017-Apr-23 11:00N 46°48' W 071°12'4 4.1 210 / 51016.9 2.7 2.6 7.2
2017-Apr-23 10:00N 46°48' W 071°06'1010.2 310 / 51016.1 3.4 3.1 7.1
2017-Apr-23 09:00N 46°54' W 070°54'1514.5 230 / 31015.4 3.7 2.8 7.1
2017-Apr-23 08:00N 47°06' W 070°42'1514.5 350 / 21015.5 3.1 3.0 6.5
2017-Apr-23 07:00N 47°18' W 070°30'1717.1 110 / 81014.9 2.7 2.2 5.5
2017-Apr-23 06:00N 47°30' W 070°12'1717.1 050 / 81015.1 2.8 2.2 5.1
2017-Apr-23 05:00N 47°42' W 069°54'1312.7 040 / 71015.3 2.4 1.9 5.0
2017-Apr-23 04:00N 47°54' W 069°48'1414.4 010 / 81015.5 2.0 1.8 4.6
2017-Apr-23 03:00N 48°06' W 069°36'1414.4 010 / 121015.8 1.7 1.2 3.7
2017-Apr-23 02:00N 48°18' W 069°24'1010.0 010 / 121016.0 1.4 1.3 4.0
2017-Apr-23 01:00N 48°24' W 069°12'7 7.2 360 / 141016.2 1.9 1.8 4.1
2017-Apr-23 00:00N 48°30' W 069°06'1010.0 070 / 101015.9 1.9 1.7 3.7
2017-Apr-22 23:00N 48°36' W 068°54'8 7.9 080 / 151015.9 1.5 1.3 4.1
2017-Apr-22 22:00N 48°36' W 068°42'10 9.9 080 / 151015.8 1.4 1.3 3.7
2017-Apr-22 21:00N 48°42' W 068°30'7 7.2 080 / 201015.8 1.0 0.9 3.5
2017-Apr-22 20:00N 48°48' W 068°24'10 9.9 080 / 211016.2 0.7 0.5 3.3
2017-Apr-22 19:00N 48°54' W 068°12'8 7.9 070 / 201016.7 0.3 0.1 3.1
2017-Apr-22 18:00N 48°54' W 068°00'7 7.2 070 / 221017.1 -0.1-0.3 3.1
2017-Apr-22 17:00N 49°00' W 067°54'10 9.9 070 / 181017.6 -0.3-0.4 3.1
2017-Apr-22 16:00N 49°06' W 067°42'10 9.9 070 / 121018.6 -0.2-0.6 3.3
2017-Apr-22 15:00N 49°12' W 067°30'1211.8 040 / 101019.3 0.8-0.6 3.2
2017-Apr-22 14:00N 49°12' W 067°12'1313.2 020 / 61019.5 2.0-1.1 3.0
2017-Apr-22 13:00N 49°18' W 066°54'4 3.9 100 / 81020.0 2.0-1.9 3.2
2017-Apr-22 12:00N 49°18' W 066°48'1313.2 090 / 201019.9 1.3-2.6 2.7
2017-Apr-22 11:00N 49°24' W 066°30'1211.7 090 / 201020.3 1.3-2.5 2.0
2017-Apr-22 10:00N 49°24' W 066°12'1211.7 090 / 261020.8 1.1-1.5 2.3
2017-Apr-22 09:00N 49°24' W 065°54'10 9.8 090 / 211021.5 1.2-1.0 2.4
2017-Apr-22 08:00N 49°30' W 065°42'10 9.8 090 / 131022.4 4.0-0.0 2.5
2017-Apr-22 07:00N 49°24' W 065°30'1211.7 090 / 111022.7 3.5-0.1 2.6
2017-Apr-22 06:00N 49°24' W 065°12'1211.7 100 / 131023.2 2.2-0.2 2.7
2017-Apr-22 05:00N 49°24' W 064°54'7 7.2 100 / 131024.1 2.3-0.3 3.1
2017-Apr-22 04:00N 49°18' W 064°48'10 9.9 110 / 101025.0 2.1-0.1 2.8
2017-Apr-22 03:00N 49°12' W 064°36'10 9.9 130 / 71024.8 1.7-0.6 3.1
2017-Apr-22 02:00N 49°06' W 064°24'8 7.9 130 / 81024.9 1.1-0.6 3.5
2017-Apr-22 01:00N 49°06' W 064°12'1312.6 120 / 51025.5 1.2-0.6 3.3
2017-Apr-22 00:00N 48°54' W 064°06'6 6.0 070 / 41025.4 1.0-0.7 3.3
2017-Apr-21 23:00N 48°48' W 064°06'7 7.2 030 / 31025.2 0.9-1.2 3.0
2017-Apr-21 22:00N 48°42' W 064°12'10 9.9 100 / 51025.4 1.2-1.4 3.6
2017-Apr-21 21:00N 48°48' W 064°24'0 0.0 100 / 41026.0 1.7-1.5 3.6
2017-Apr-21 20:00N 48°48' W 064°24'0 0.0 110 / 81026.0 2.0-2.1
2017-Apr-21 19:00N 48°48' W 064°24'0 0.0 120 / 91026.3 1.7-1.8
2017-Apr-21 18:00N 48°48' W 064°24'0 0.0 120 / 81026.7 2.1-1.5
2017-Apr-21 17:00N 48°48' W 064°24'0 0.0 140 / 41027.0 1.8-1.5
2017-Apr-21 16:00N 48°48' W 064°24'0 0.0 070 / 61027.2 1.1-1.9
2017-Apr-21 15:00N 48°48' W 064°24'0 0.0 050 / 81027.5 0.9-2.1
2017-Apr-21 14:00N 48°48' W 064°24'4 4.0 060 / 51027.6 1.6-2.3 3.7
2017-Apr-21 13:00N 48°48' W 064°18'1716.9 010 / 111027.2 0.3-1.0 3.2
2017-Apr-21 12:00N 48°42' W 063°54'1313.3 360 / 151027.2 0.5-0.0 2.5
2017-Apr-21 11:00N 48°36' W 063°36'1211.9 020 / 101027.0 0.5 0.2 2.7
2017-Apr-21 10:00N 48°36' W 063°18'1717.0 020 / 101026.8 0.3-0.1 2.6
2017-Apr-21 09:00N 48°30' W 062°54'1211.9 020 / 61026.4 -0.1-0.7 1.6
2017-Apr-21 08:00N 48°30' W 062°36'1313.4 040 / 51026.2 0.1-1.3 1.9
2017-Apr-21 07:00N 48°24' W 062°18'1717.0 040 / 31025.6 -0.1-1.0 1.7
2017-Apr-21 06:00N 48°18' W 061°54'1212.0 020 / 41025.5 -0.3-0.8 1.3
2017-Apr-21 05:00N 48°18' W 061°36'1313.4 050 / 61025.2 -0.4-1.5 1.6
2017-Apr-21 04:00N 48°12' W 061°18'1717.1 030 / 61025.6 -0.5-2.3 2.0
2017-Apr-21 03:00N 48°06' W 060°54'1010.0 040 / 81025.9 -0.7-1.8 1.2
2017-Apr-21 02:00N 48°00' W 060°42'1414.4 040 / 81026.2 -0.5-2.2 1.3
2017-Apr-21 01:00N 47°48' W 060°30'1414.5 030 / 71026.3 -0.4-2.3 1.4
2017-Apr-21 00:00N 47°36' W 060°18'1414.5 040 / 71026.2 -0.1-3.0 2.0
2017-Apr-20 23:00N 47°24' W 060°06'1312.7 020 / 61025.9 -0.0-3.6 2.0
2017-Apr-20 22:00N 47°12' W 060°00'1818.0 140 / 21025.9 -0.0-4.1 2.0
2017-Apr-20 21:00N 46°54' W 060°00'7 7.3 090 / 61026.1 -0.0-4.5 2.4
2017-Apr-20 20:00N 46°48' W 060°06'1818.0 080 / 81026.0 -0.0-3.8 2.4
2017-Apr-20 19:00N 46°30' W 060°06'1212.0 070 / 71025.7 -0.1-3.3 1.9
2017-Apr-20 18:00N 46°18' W 060°06'1312.7 060 / 101025.8 -0.2-3.3 2.2
2017-Apr-20 17:00N 46°06' W 060°12'0 0.0 340 / 111026.3 1.3-2.7
2017-Apr-20 16:00N 46°06' W 060°12'0 0.0 330 / 121026.8 0.4-2.3
2017-Apr-20 15:00N 46°06' W 060°12'0 0.0 350 / 91028.0 0.6-3.0
2017-Apr-20 14:00N 46°06' W 060°12'0 0.0 340 / 81028.1 0.1-3.4
2017-Apr-20 13:00N 46°06' W 060°12'0 0.0 310 / 31028.7 -0.8-4.0
2017-Apr-20 12:00N 46°06' W 060°12'0 0.0 190 / 21029.2 -0.7-4.2
2017-Apr-20 11:00N 46°06' W 060°12'0 0.0 180 / 11029.6 -3.1-5.1
2017-Apr-20 10:00N 46°06' W 060°12'0 0.0 190 / 11029.7 -4.6-5.6
2017-Apr-20 09:00N 46°06' W 060°12'0 0.0 180 / 31029.6 -5.7-6.5
2017-Apr-20 08:00N 46°06' W 060°12'0 0.0 250 / 21029.6 -5.2-6.5
2017-Apr-20 07:00N 46°06' W 060°12'0 0.0 300 / 21029.8 -5.4-6.5
2017-Apr-20 06:00N 46°06' W 060°12'0 0.0 080 / 21029.8 -4.5-6.0
2017-Apr-20 05:00N 46°06' W 060°12'0 0.0 1030.9 -4.3-6.0
2017-Apr-20 04:00N 46°06' W 060°12'0 0.0 070 / 11031.5 -3.5-6.0 3.1
2017-Apr-20 03:00N 46°06' W 060°12'0 0.0 260 / 11032.6 -3.6-5.7 3.4
2017-Apr-20 02:00N 46°06' W 060°12'6 6.0 120 / 11032.9 -2.7-5.9 4.2
2017-Apr-20 01:00N 46°12' W 060°12'7 7.3 070 / 41033.3 -3.1-6.0 4.5
2017-Apr-20 00:00N 46°18' W 060°06'1312.7 090 / 61033.4 -2.9-6.1 2.0
2017-Apr-19 23:00N 46°30' W 060°12'1212.0 100 / 51033.0 -3.0-6.6 1.7
2017-Apr-19 22:00N 46°42' W 060°12'1212.0 090 / 61033.4 -2.6-8.0 1.4
2017-Apr-19 21:00N 46°54' W 060°12'1818.5 100 / 41034.2 -2.4-10.1 2.0
2017-Apr-19 20:00N 47°12' W 060°18'1414.5 130 / 51034.4 -2.2-10.7 2.3
2017-Apr-19 19:00N 47°24' W 060°30'7 7.2 080 / 51034.4 -2.3-9.6 1.7
2017-Apr-19 18:00N 47°30' W 060°36'1414.5 090 / 61034.9 -2.6-8.5 1.7
2017-Apr-19 17:00N 47°42' W 060°48'1312.7 110 / 71035.5 -2.4-7.5 1.3
2017-Apr-19 16:00N 47°54' W 060°54'1717.0 110 / 51036.4 -2.4-7.7 1.1
2017-Apr-19 15:00N 48°06' W 061°12'1313.4 090 / 71037.2 -2.4-7.8 1.2
2017-Apr-19 14:00N 48°12' W 061°30'1313.4 100 / 51038.3 -2.1-8.4 1.2
2017-Apr-19 13:00N 48°18' W 061°48'1716.9 110 / 71038.5 -1.9-9.4 1.4
2017-Apr-19 12:00N 48°30' W 062°06'1313.3 150 / 11039.0 -1.6-8.0 1.4
2017-Apr-19 11:00N 48°36' W 062°24'10 9.9 250 / 31039.0 -1.4-7.8 1.8
2017-Apr-19 10:00N 48°42' W 062°36'1313.3 230 / 61038.1 -1.6-7.3 1.3
2017-Apr-19 09:00N 48°48' W 062°54'1313.3 220 / 91037.4 -1.8-6.8 1.3
2017-Apr-19 08:00N 48°54' W 063°12'1313.3 220 / 111037.2 -1.4-6.8 1.7
2017-Apr-19 07:00N 49°00' W 063°30'1313.2 210 / 131036.9 -1.6-7.4 1.7
2017-Apr-19 06:00N 49°06' W 063°48'1313.2 190 / 141036.3 -1.2-8.6 2.5
2017-Apr-19 05:00N 49°12' W 064°06'1313.2 200 / 111036.5 -1.0-7.0 2.0
2017-Apr-19 04:00N 49°18' W 064°24'1313.2 190 / 131036.7 -1.0-6.2 1.9
2017-Apr-19 03:00N 49°24' W 064°42'1313.2 180 / 121036.6 -1.0-8.8 1.9
2017-Apr-19 02:00N 49°30' W 065°00'1313.1 160 / 101036.4 -1.9-11.5 1.9
2017-Apr-19 01:00N 49°36' W 065°18'1313.1 170 / 81036.2 -2.2-11.2 2.3
2017-Apr-19 00:00N 49°42' W 065°36'1313.1 170 / 91035.9 -2.6-12.7 2.1
2017-Apr-18 23:00N 49°48' W 065°54'1313.1 180 / 101035.6 -2.9-12.1 2.0
2017-Apr-18 22:00N 49°54' W 066°12'1414.3 170 / 111035.3 -2.5-13.7 1.8
2017-Apr-18 21:00N 50°06' W 066°24'6 6.0 180 / 81035.5 -2.3-12.7 1.7
2017-Apr-18 20:00N 50°12' W 066°24'0 0.0 200 / 81035.9 -2.8-12.3
2017-Apr-18 19:00N 50°12' W 066°24'0 0.0 190 / 111036.1 -3.4-12.3
2017-Apr-18 18:00N 50°12' W 066°24'0 0.0 200 / 111036.2 -3.9-13.3
2017-Apr-18 17:00N 50°12' W 066°24'0 0.0 200 / 101036.0 -4.4-13.7
2017-Apr-18 16:00N 50°12' W 066°24'0 0.0 160 / 81036.0 -4.3-13.4
2017-Apr-18 15:00N 50°12' W 066°24'0 0.0 170 / 71036.0 -4.6-14.0
2017-Apr-18 14:00N 50°12' W 066°24'0 0.0 120 / 91035.8 -5.5-15.7
2017-Apr-18 13:00N 50°12' W 066°24'0 0.0 120 / 71035.1 -5.2-18.3
2017-Apr-18 12:00N 50°12' W 066°24'7 7.1 040 / 71034.5 -6.5-17.0 1.4
2017-Apr-18 11:00N 50°06' W 066°18'7 7.1 040 / 131033.1 -6.5-15.9 1.3
2017-Apr-18 10:00N 50°00' W 066°24'4 3.9 030 / 151031.9 -6.4-15.6 1.4
2017-Apr-18 09:00N 50°00' W 066°30'4 3.9 040 / 141030.7 -6.3-15.8 1.4
2017-Apr-18 08:00N 50°00' W 066°36'4 3.9 040 / 131029.9 -5.6-16.6 1.4
2017-Apr-18 07:00N 50°00' W 066°42'4 3.9 020 / 141028.9 -5.7-16.5 1.6
2017-Apr-18 06:00N 50°00' W 066°48'0 0.0 340 / 71028.7 -7.3-17.2 1.8
2017-Apr-18 05:00N 50°00' W 066°48'0 0.0 020 / 21028.0 -7.4-16.3
2017-Apr-18 04:00N 50°00' W 066°48'0 0.0 020 / 11027.0 -6.6-15.8
2017-Apr-18 03:00N 50°00' W 066°48'0 0.0 350 / 21026.2 -5.6-15.0
2017-Apr-18 02:00N 50°00' W 066°48'0 0.0 070 / 31025.1 -3.3-16.8
2017-Apr-18 01:00N 50°00' W 066°48'0 0.0 070 / 41024.0 -1.9-14.9
2017-Apr-18 00:00N 50°00' W 066°48'0 0.0 220 / 11022.8 -1.0-5.1
2017-Apr-17 23:00N 50°00' W 066°48'0 0.0 210 / 11021.3 0.3-5.4
2017-Apr-17 22:00N 50°00' W 066°48'0 0.0 060 / 11020.5 0.8-5.9
2017-Apr-17 21:00N 50°00' W 066°48'0 0.0 070 / 21019.5 0.8-11.8
2017-Apr-17 20:00N 50°00' W 066°48'0 0.0 040 / 11018.7 0.8-11.3
2017-Apr-17 19:00N 50°00' W 066°48'0 0.0 080 / 51018.4 0.6-12.8
2017-Apr-17 18:00N 50°00' W 066°48'0 0.0 040 / 21018.4 0.6-15.2
2017-Apr-17 17:00N 50°00' W 066°48'0 0.0 070 / 31017.8 -0.2-14.2
2017-Apr-17 16:00N 50°00' W 066°48'6 6.0 030 / 81016.8 -1.3-14.2 2.2
2017-Apr-17 15:00N 49°54' W 066°48'7 7.1 030 / 111015.9 -2.2-13.2 2.0
2017-Apr-17 14:00N 49°48' W 066°54'   030 / 161015.2 -3.3-10.6 1.7

Dump ship's entire track history